Avalon, California
Current Conditions -  °F | °C
As of 4:51 AM on Wednesday 26 Nov 2014 (Local Time) from KAVX Reporting Station
Clear Clear  
Wind Chill: 69°   Ceiling: Unl
Heat Index: 69°   Visibility: 10mi
Dew Point: 10°   Wind: 5mph
Humidity: 10%   Direction: 50°NE
Pressure: 30.25"   Gusts: NA
Location:  33.34°N, 118.33°W
Report Text: KAVX 261251Z AUTO 05004KT 10SM CLR 21/M12 A3025 RMK AO2 SLP215 T02061122
Loading
Personal Weather Stations






























Interactive Weather Map New forecast layout! Learn more

10-Day Weather Forecast

Advertisements
Track Severe Weather on mobile